sensor_id;sensor_type;location;lat;lon;timestamp;pressure;altitude;pressure_sealevel;temperature;humidity
84122;BME280;74217;51.106;17.084;2023-11-18T11:41:31;101082.56;;;7.95;70.94
84122;BME280;74217;51.106;17.084;2023-11-18T11:44:18;101093.88;;;7.91;72.08
84122;BME280;74217;51.106;17.084;2023-11-18T11:47:06;101097.53;;;7.71;72.22
84122;BME280;74217;51.106;17.084;2023-11-18T11:49:55;101093.34;;;7.43;74.12
84122;BME280;74217;51.106;17.084;2023-11-18T11:52:51;101095.78;;;7.71;73.41
84122;BME280;74217;51.106;17.084;2023-11-18T11:55:46;101082.75;;;7.70;74.16
84122;BME280;74217;51.106;17.084;2023-11-18T11:58:35;101071.56;;;7.57;72.67
84122;BME280;74217;51.106;17.084;2023-11-18T12:01:28;101107.13;;;7.63;74.88
84122;BME280;74217;51.106;17.084;2023-11-18T12:04:23;101116.75;;;7.53;74.82
84122;BME280;74217;51.106;17.084;2023-11-18T12:07:14;101103.69;;;7.58;73.14
84122;BME280;74217;51.106;17.084;2023-11-18T12:10:00;101096.75;;;7.57;73.98
84122;BME280;74217;51.106;17.084;2023-11-18T12:12:50;101108.00;;;7.60;73.53
84122;BME280;74217;51.106;17.084;2023-11-18T12:15:53;101111.50;;;7.62;73.38
84122;BME280;74217;51.106;17.084;2023-11-18T12:18:38;101104.53;;;7.64;73.06
84122;BME280;74217;51.106;17.084;2023-11-18T12:21:54;101105.31;;;7.75;73.08
84122;BME280;74217;51.106;17.084;2023-11-18T12:24:39;101110.50;;;7.78;72.75
84122;BME280;74217;51.106;17.084;2023-11-18T12:33:14;101105.28;;;7.78;71.94
84122;BME280;74217;51.106;17.084;2023-11-18T12:36:47;101111.34;;;7.83;71.96
84122;BME280;74217;51.106;17.084;2023-11-18T12:43:01;101111.38;;;7.77;71.11
84122;BME280;74217;51.106;17.084;2023-11-18T12:49:13;101126.22;;;7.66;71.59
84122;BME280;74217;51.106;17.084;2023-11-18T12:51:59;101120.22;;;7.51;72.00
84122;BME280;74217;51.106;17.084;2023-11-18T12:54:44;101121.09;;;7.53;72.12
84122;BME280;74217;51.106;17.084;2023-11-18T12:57:35;101114.97;;;7.58;72.05
84122;BME280;74217;51.106;17.084;2023-11-18T13:00:22;101123.66;;;7.63;71.99
84122;BME280;74217;51.106;17.084;2023-11-18T13:03:11;101125.41;;;7.58;72.27
84122;BME280;74217;51.106;17.084;2023-11-18T13:05:59;101117.63;;;7.55;72.26
84122;BME280;74217;51.106;17.084;2023-11-18T13:08:44;101119.31;;;7.59;72.41
84122;BME280;74217;51.106;17.084;2023-11-18T13:11:29;101112.34;;;7.66;70.76
84122;BME280;74217;51.106;17.084;2023-11-18T13:14:15;101114.94;;;7.64;72.14
84122;BME280;74217;51.106;17.084;2023-11-18T13:17:02;101119.28;;;7.65;71.91
84122;BME280;74217;51.106;17.084;2023-11-18T13:19:50;101114.03;;;7.70;73.19
84122;BME280;74217;51.106;17.084;2023-11-18T13:22:38;101116.69;;;7.65;73.09
84122;BME280;74217;51.106;17.084;2023-11-18T13:25:23;101113.25;;;7.57;74.52
84122;BME280;74217;51.106;17.084;2023-11-18T13:28:08;101115.75;;;7.77;72.99
84122;BME280;74217;51.106;17.084;2023-11-18T13:30:54;101127.03;;;7.77;73.41
84122;BME280;74217;51.106;17.084;2023-11-18T13:33:39;101118.31;;;7.81;73.03
84122;BME280;74217;51.106;17.084;2023-11-18T13:36:24;101124.28;;;7.94;73.22
84122;BME280;74217;51.106;17.084;2023-11-18T13:39:15;101128.63;;;7.96;72.09
84122;BME280;74217;51.106;17.084;2023-11-18T13:42:23;101126.09;;;7.86;71.92
84122;BME280;74217;51.106;17.084;2023-11-18T13:45:12;101120.84;;;7.93;71.01
84122;BME280;74217;51.106;17.084;2023-11-18T13:48:00;101133.84;;;7.95;70.99
84122;BME280;74217;51.106;17.084;2023-11-18T13:50:44;101120.81;;;7.95;69.77
84122;BME280;74217;51.106;17.084;2023-11-18T13:53:31;101116.38;;;8.04;69.28
84122;BME280;74217;51.106;17.084;2023-11-18T13:56:18;101106.91;;;7.96;71.97
84122;BME280;74217;51.106;17.084;2023-11-18T13:59:04;101118.19;;;7.96;70.96
84122;BME280;74217;51.106;17.084;2023-11-18T14:01:49;101117.31;;;7.97;71.53
84122;BME280;74217;51.106;17.084;2023-11-18T14:04:36;101113.09;;;7.81;71.76
84122;BME280;74217;51.106;17.084;2023-11-18T14:07:23;101113.06;;;7.87;71.08
84122;BME280;74217;51.106;17.084;2023-11-18T14:10:08;101115.63;;;7.92;70.55
84122;BME280;74217;51.106;17.084;2023-11-18T14:13:04;101113.88;;;7.94;70.85
84122;BME280;74217;51.106;17.084;2023-11-18T14:15:57;101119.13;;;7.88;71.88
84122;BME280;74217;51.106;17.084;2023-11-18T14:18:42;101113.88;;;7.94;71.50
84122;BME280;74217;51.106;17.084;2023-11-18T14:21:26;101106.06;;;7.92;70.49
84122;BME280;74217;51.106;17.084;2023-11-18T14:24:11;101113.03;;;7.90;71.35
84122;BME280;74217;51.106;17.084;2023-11-18T14:26:56;101117.34;;;7.93;70.95
84122;BME280;74217;51.106;17.084;2023-11-18T14:29:41;101120.84;;;7.93;69.92
84122;BME280;74217;51.106;17.084;2023-11-18T14:32:25;101126.94;;;7.89;71.63
84122;BME280;74217;51.106;17.084;2023-11-18T14:35:10;101127.91;;;7.73;73.33
84122;BME280;74217;51.106;17.084;2023-11-18T14:37:56;101127.00;;;7.82;70.61
84122;BME280;74217;51.106;17.084;2023-11-18T14:40:40;101133.09;;;7.79;71.11
84122;BME280;74217;51.106;17.084;2023-11-18T14:43:26;101141.78;;;7.81;71.08
84122;BME280;74217;51.106;17.084;2023-11-18T14:46:12;101150.44;;;7.83;70.28
84122;BME280;74217;51.106;17.084;2023-11-18T14:48:58;101138.28;;;7.82;69.55
84122;BME280;74217;51.106;17.084;2023-11-18T14:51:44;101138.34;;;7.75;71.03
84122;BME280;74217;51.106;17.084;2023-11-18T14:54:31;101137.47;;;7.74;72.18
84122;BME280;74217;51.106;17.084;2023-11-18T14:57:20;101136.59;;;7.72;71.91
84122;BME280;74217;51.106;17.084;2023-11-18T15:00:05;101143.66;;;7.61;73.27
84122;BME280;74217;51.106;17.084;2023-11-18T15:02:53;101135.78;;;7.63;72.65
84122;BME280;74217;51.106;17.084;2023-11-18T15:05:39;101141.88;;;7.63;72.56
84122;BME280;74217;51.106;17.084;2023-11-18T15:08:24;101140.97;;;7.70;72.29
84122;BME280;74217;51.106;17.084;2023-11-18T15:11:09;101150.59;;;7.62;73.41
84122;BME280;74217;51.106;17.084;2023-11-18T15:13:54;101145.34;;;7.67;73.21
84122;BME280;74217;51.106;17.084;2023-11-18T15:16:39;101143.63;;;7.66;73.34
84122;BME280;74217;51.106;17.084;2023-11-18T15:19:24;101151.50;;;7.52;73.27
84122;BME280;74217;51.106;17.084;2023-11-18T15:22:11;101143.69;;;7.55;73.08
84122;BME280;74217;51.106;17.084;2023-11-18T15:24:56;101144.50;;;7.63;71.67
84122;BME280;74217;51.106;17.084;2023-11-18T15:27:44;101142.78;;;7.62;72.10
84122;BME280;74217;51.106;17.084;2023-11-18T15:30:29;101145.41;;;7.56;72.46
84122;BME280;74217;51.106;17.084;2023-11-18T15:33:15;101137.59;;;7.56;73.28
84122;BME280;74217;51.106;17.084;2023-11-18T15:35:59;101134.09;;;7.57;73.47
84122;BME280;74217;51.106;17.084;2023-11-18T15:38:45;101130.66;;;7.55;72.58
84122;BME280;74217;51.106;17.084;2023-11-18T15:41:30;101125.44;;;7.54;72.76
84122;BME280;74217;51.106;17.084;2023-11-18T15:44:15;101134.13;;;7.48;73.87
84122;BME280;74217;51.106;17.084;2023-11-18T15:47:01;101133.28;;;7.45;72.60
84122;BME280;74217;51.106;17.084;2023-11-18T15:49:46;101136.81;;;7.39;73.18
84122;BME280;74217;51.106;17.084;2023-11-18T15:52:31;101139.38;;;7.42;73.47
84122;BME280;74217;51.106;17.084;2023-11-18T15:55:18;101149.81;;;7.39;73.66
84122;BME280;74217;51.106;17.084;2023-11-18T15:58:03;101158.56;;;7.32;74.33
84122;BME280;74217;51.106;17.084;2023-11-18T16:00:48;101151.63;;;7.25;74.01
84122;BME280;74217;51.106;17.084;2023-11-18T16:03:36;101149.91;;;7.24;74.30
84122;BME280;74217;51.106;17.084;2023-11-18T16:06:21;101149.91;;;7.24;74.78
84122;BME280;74217;51.106;17.084;2023-11-18T16:09:06;101151.63;;;7.22;74.82
84122;BME280;74217;51.106;17.084;2023-11-18T16:11:51;101149.88;;;7.30;74.92
84122;BME280;74217;51.106;17.084;2023-11-18T16:14:36;101153.34;;;7.32;74.85
84122;BME280;74217;51.106;17.084;2023-11-18T16:17:20;101152.47;;;7.32;74.31
84122;BME280;74217;51.106;17.084;2023-11-18T16:20:08;101155.94;;;7.32;73.62
84122;BME280;74217;51.106;17.084;2023-11-18T16:22:59;101156.81;;;7.31;73.61
84122;BME280;74217;51.106;17.084;2023-11-18T16:25:47;101151.63;;;7.31;74.15
84122;BME280;74217;51.106;17.084;2023-11-18T16:28:32;101151.59;;;7.37;74.75
84122;BME280;74217;51.106;17.084;2023-11-18T16:31:16;101158.50;;;7.44;73.86
84122;BME280;74217;51.106;17.084;2023-11-18T16:34:02;101149.81;;;7.39;74.39
84122;BME280;74217;51.106;17.084;2023-11-18T16:36:47;101148.09;;;7.37;73.37
84122;BME280;74217;51.106;17.084;2023-11-18T16:39:33;101150.78;;;7.20;75.35
84122;BME280;74217;51.106;17.084;2023-11-18T16:42:18;101140.34;;;7.23;75.17
84122;BME280;74217;51.106;17.084;2023-11-18T16:45:04;101153.34;;;7.32;73.04
84122;BME280;74217;51.106;17.084;2023-11-18T16:47:50;101156.78;;;7.42;72.74
84122;BME280;74217;51.106;17.084;2023-11-18T16:50:37;101150.69;;;7.44;74.58
84122;BME280;74217;51.106;17.084;2023-11-18T16:53:21;101152.44;;;7.41;74.90
84122;BME280;74217;51.106;17.084;2023-11-18T16:56:07;101160.28;;;7.36;74.84
84122;BME280;74217;51.106;17.084;2023-11-18T16:58:53;101160.28;;;7.33;74.62
84122;BME280;74217;51.106;17.084;2023-11-18T17:01:38;101157.69;;;7.29;75.20
84122;BME280;74217;51.106;17.084;2023-11-18T17:04:23;101155.09;;;7.30;75.77
84122;BME280;74217;51.106;17.084;2023-11-18T17:07:10;101161.13;;;7.38;74.59
84122;BME280;74217;51.106;17.084;2023-11-18T17:09:55;101155.91;;;7.40;75.06
84122;BME280;74217;51.106;17.084;2023-11-18T17:12:41;101149.81;;;7.45;74.96
84122;BME280;74217;51.106;17.084;2023-11-18T17:15:27;101143.75;;;7.43;75.10
84122;BME280;74217;51.106;17.084;2023-11-18T17:18:13;101158.47;;;7.47;75.88
84122;BME280;74217;51.106;17.084;2023-11-18T17:20:58;101153.28;;;7.44;75.26
84122;BME280;74217;51.106;17.084;2023-11-18T17:23:44;101163.72;;;7.38;76.15
84122;BME280;74217;51.106;17.084;2023-11-18T17:26:34;101154.16;;;7.39;76.13
84122;BME280;74217;51.106;17.084;2023-11-18T17:29:24;101157.66;;;7.35;75.95
84122;BME280;74217;51.106;17.084;2023-11-18T17:32:10;101161.13;;;7.35;76.21
84122;BME280;74217;51.106;17.084;2023-11-18T17:34:56;101159.41;;;7.36;76.02
84122;BME280;74217;51.106;17.084;2023-11-18T17:37:41;101151.59;;;7.28;76.27
84122;BME280;74217;51.106;17.084;2023-11-18T17:40:26;101153.34;;;7.23;77.32
84122;BME280;74217;51.106;17.084;2023-11-18T17:43:11;101136.91;;;7.17;76.65
84122;BME280;74217;51.106;17.084;2023-11-18T17:45:57;101138.63;;;7.21;77.36
84122;BME280;74217;51.106;17.084;2023-11-18T17:48:43;101140.34;;;7.17;77.03
84122;BME280;74217;51.106;17.084;2023-11-18T17:51:28;101133.47;;;7.09;78.16
84122;BME280;74217;51.106;17.084;2023-11-18T17:54:14;101140.44;;;7.02;77.75
84122;BME280;74217;51.106;17.084;2023-11-18T17:57:00;101149.09;;;7.07;77.94
84122;BME280;74217;51.106;17.084;2023-11-18T17:59:44;101148.19;;;7.14;77.65
84122;BME280;74217;51.106;17.084;2023-11-18T18:02:48;101137.78;;;7.14;77.50
84122;BME280;74217;51.106;17.084;2023-11-18T18:05:46;101136.91;;;7.17;77.10
84122;BME280;74217;51.106;17.084;2023-11-18T18:08:32;101135.16;;;7.17;75.61
84122;BME280;74217;51.106;17.084;2023-11-18T18:11:18;101137.78;;;7.14;77.54
84122;BME280;74217;51.106;17.084;2023-11-18T18:14:04;101136.06;;;7.10;77.29
84122;BME280;74217;51.106;17.084;2023-11-18T18:16:50;101120.47;;;7.00;77.56
84122;BME280;74217;51.106;17.084;2023-11-18T18:19:36;101118.75;;;6.91;78.29
84122;BME280;74217;51.106;17.084;2023-11-18T18:22:21;101106.63;;;6.93;78.02
84122;BME280;74217;51.106;17.084;2023-11-18T18:25:09;101114.41;;;7.05;79.01
84122;BME280;74217;51.106;17.084;2023-11-18T18:27:54;101129.13;;;7.09;77.72
84122;BME280;74217;51.106;17.084;2023-11-18T18:30:39;101123.03;;;7.15;77.79
84122;BME280;74217;51.106;17.084;2023-11-18T18:33:24;101123.91;;;7.12;77.19
84122;BME280;74217;51.106;17.084;2023-11-18T18:36:09;101116.97;;;7.11;76.94
84122;BME280;74217;51.106;17.084;2023-11-18T18:38:58;101125.63;;;7.10;78.02
84122;BME280;74217;51.106;17.084;2023-11-18T18:41:43;101122.19;;;7.11;77.45
84122;BME280;74217;51.106;17.084;2023-11-18T18:44:29;101114.38;;;7.07;77.36
84122;BME280;74217;51.106;17.084;2023-11-18T18:47:14;101113.50;;;7.09;78.02
84122;BME280;74217;51.106;17.084;2023-11-18T18:49:59;101106.59;;;7.05;78.74
84122;BME280;74217;51.106;17.084;2023-11-18T18:52:44;101096.16;;;7.04;78.84
84122;BME280;74217;51.106;17.084;2023-11-18T18:55:29;101087.47;;;7.06;78.74
84122;BME280;74217;51.106;17.084;2023-11-18T18:58:14;101075.31;;;7.08;78.05
84122;BME280;74217;51.106;17.084;2023-11-18T19:00:58;101072.72;;;7.08;78.69
84122;BME280;74217;51.106;17.084;2023-11-18T19:03:43;101077.03;;;7.11;77.91
84122;BME280;74217;51.106;17.084;2023-11-18T19:06:28;101077.03;;;7.09;78.29
84122;BME280;74217;51.106;17.084;2023-11-18T19:09:13;101075.31;;;7.11;77.37
84122;BME280;74217;51.106;17.084;2023-11-18T19:11:59;101073.56;;;7.12;76.75
84122;BME280;74217;51.106;17.084;2023-11-18T19:14:44;101088.34;;;7.05;76.65
84122;BME280;74217;51.106;17.084;2023-11-18T19:17:28;101090.97;;;7.02;77.61
84122;BME280;74217;51.106;17.084;2023-11-18T19:20:14;101090.97;;;7.02;77.25
84122;BME280;74217;51.106;17.084;2023-11-18T19:22:59;101089.25;;;6.95;77.32
84122;BME280;74217;51.106;17.084;2023-11-18T19:25:44;101092.72;;;6.94;77.11
84122;BME280;74217;51.106;17.084;2023-11-18T19:28:29;101090.97;;;6.96;77.89
84122;BME280;74217;51.106;17.084;2023-11-18T19:31:14;101092.75;;;6.87;78.15
84122;BME280;74217;51.106;17.084;2023-11-18T19:33:59;101085.78;;;6.89;78.76
84122;BME280;74217;51.106;17.084;2023-11-18T19:36:44;101072.84;;;6.81;79.56
84122;BME280;74217;51.106;17.084;2023-11-18T19:39:30;101066.78;;;6.76;79.90
84122;BME280;74217;51.106;17.084;2023-11-18T19:42:16;101061.53;;;6.82;78.86
84122;BME280;74217;51.106;17.084;2023-11-18T19:45:04;101058.09;;;6.80;79.73
84122;BME280;74217;51.106;17.084;2023-11-18T19:47:52;101066.72;;;6.85;79.21
84122;BME280;74217;51.106;17.084;2023-11-18T19:50:37;101047.69;;;6.79;79.02
84122;BME280;74217;51.106;17.084;2023-11-18T19:53:22;101036.38;;;6.80;78.81
84122;BME280;74217;51.106;17.084;2023-11-18T19:56:06;101038.16;;;6.76;79.33
84122;BME280;74217;51.106;17.084;2023-11-18T19:58:54;101032.97;;;6.72;79.66
84122;BME280;74217;51.106;17.084;2023-11-18T20:01:38;101033.81;;;6.72;79.43
84122;BME280;74217;51.106;17.084;2023-11-18T20:04:24;101030.28;;;6.88;78.74
84122;BME280;74217;51.106;17.084;2023-11-18T20:07:12;101033.75;;;6.93;79.29
84122;BME280;74217;51.106;17.084;2023-11-18T20:10:03;101030.22;;;6.97;78.20
84122;BME280;74217;51.106;17.084;2023-11-18T20:12:48;101025.03;;;6.97;79.75
84122;BME280;74217;51.106;17.084;2023-11-18T20:15:33;101019.84;;;6.91;79.64
84122;BME280;74217;51.106;17.084;2023-11-18T20:18:17;101022.44;;;6.96;79.52
84122;BME280;74217;51.106;17.084;2023-11-18T20:21:03;101031.97;;;6.92;79.38
84122;BME280;74217;51.106;17.084;2023-11-18T20:23:48;101018.09;;;6.96;78.93
84122;BME280;74217;51.106;17.084;2023-11-18T20:26:33;101012.88;;;6.96;79.37
84122;BME280;74217;51.106;17.084;2023-11-18T20:29:18;101012.94;;;6.87;79.64
84122;BME280;74217;51.106;17.084;2023-11-18T20:32:04;100996.44;;;6.90;79.39
84122;BME280;74217;51.106;17.084;2023-11-18T20:34:49;100985.25;;;6.74;79.64
84122;BME280;74217;51.106;17.084;2023-11-18T20:37:35;100983.59;;;6.53;80.76
84122;BME280;74217;51.106;17.084;2023-11-18T20:40:19;100973.19;;;6.53;80.32
84122;BME280;74217;51.106;17.084;2023-11-18T20:43:08;100981.84;;;6.57;79.97
84122;BME280;74217;51.106;17.084;2023-11-18T20:45:52;100983.59;;;6.54;80.15
84122;BME280;74217;51.106;17.084;2023-11-18T20:48:38;100991.34;;;6.64;79.19
84122;BME280;74217;51.106;17.084;2023-11-18T20:51:23;100990.53;;;6.47;80.40
84122;BME280;74217;51.106;17.084;2023-11-18T20:54:09;100981.00;;;6.56;79.16
84122;BME280;74217;51.106;17.084;2023-11-18T20:56:55;100985.31;;;6.61;79.08
84122;BME280;74217;51.106;17.084;2023-11-18T20:59:39;100975.72;;;6.67;76.80
84122;BME280;74217;51.106;17.084;2023-11-18T21:02:24;100973.13;;;6.64;78.30
84122;BME280;74217;51.106;17.084;2023-11-18T21:05:09;100969.66;;;6.65;78.59
84122;BME280;74217;51.106;17.084;2023-11-18T21:07:56;100979.25;;;6.57;77.69
84122;BME280;74217;51.106;17.084;2023-11-18T21:10:42;100961.03;;;6.57;78.15
84122;BME280;74217;51.106;17.084;2023-11-18T21:13:27;100973.16;;;6.58;77.84
84122;BME280;74217;51.106;17.084;2023-11-18T21:16:12;100963.63;;;6.59;77.88
84122;BME280;74217;51.106;17.084;2023-11-18T21:18:57;100952.38;;;6.53;78.33
84122;BME280;74217;51.106;17.084;2023-11-18T21:21:47;100950.63;;;6.54;78.58
84122;BME280;74217;51.106;17.084;2023-11-18T21:24:32;100955.00;;;6.50;79.13
84122;BME280;74217;51.106;17.084;2023-11-18T21:27:17;100968.84;;;6.50;78.57
84122;BME280;74217;51.106;17.084;2023-11-18T21:30:02;100961.09;;;6.46;78.43
84122;BME280;74217;51.106;17.084;2023-11-18T21:32:48;100952.44;;;6.35;79.10
84122;BME280;74217;51.106;17.084;2023-11-18T21:35:33;100969.78;;;6.36;78.77
84122;BME280;74217;51.106;17.084;2023-11-18T21:38:18;100955.94;;;6.29;78.05
84122;BME280;74217;51.106;17.084;2023-11-18T21:41:03;100957.66;;;6.27;78.84
84122;BME280;74217;51.106;17.084;2023-11-18T21:43:48;100955.06;;;6.27;79.05
84122;BME280;74217;51.106;17.084;2023-11-18T21:46:32;100944.69;;;6.17;79.00
84122;BME280;74217;51.106;17.084;2023-11-18T21:49:17;100933.47;;;6.12;79.57
84122;BME280;74217;51.106;17.084;2023-11-18T21:52:02;100933.47;;;6.10;79.67
84122;BME280;74217;51.106;17.084;2023-11-18T21:54:47;100928.28;;;6.07;79.92
84122;BME280;74217;51.106;17.084;2023-11-18T21:57:32;100917.91;;;6.06;79.80
84122;BME280;74217;51.106;17.084;2023-11-18T22:00:22;100920.47;;;6.12;79.73
84122;BME280;74217;51.106;17.084;2023-11-18T22:03:08;100932.59;;;6.11;79.29
84122;BME280;74217;51.106;17.084;2023-11-18T22:05:54;100910.94;;;6.11;79.53
84122;BME280;74217;51.106;17.084;2023-11-18T22:08:39;100900.53;;;6.14;79.63
84122;BME280;74217;51.106;17.084;2023-11-18T22:11:24;100909.22;;;6.13;80.11
84122;BME280;74217;51.106;17.084;2023-11-18T22:14:09;100904.00;;;6.10;79.76
84122;BME280;74217;51.106;17.084;2023-11-18T22:16:55;100898.84;;;6.07;80.18
84122;BME280;74217;51.106;17.084;2023-11-18T22:19:40;100898.81;;;6.11;80.35
84122;BME280;74217;51.106;17.084;2023-11-18T22:22:25;100887.53;;;6.15;79.65
84122;BME280;74217;51.106;17.084;2023-11-18T22:25:09;100894.50;;;6.12;79.62
84122;BME280;74217;51.106;17.084;2023-11-18T22:27:55;100890.13;;;6.14;79.73
84122;BME280;74217;51.106;17.084;2023-11-18T22:30:39;100891.00;;;6.13;79.99
84122;BME280;74217;51.106;17.084;2023-11-18T22:33:24;100888.44;;;6.07;79.28
84122;BME280;74217;51.106;17.084;2023-11-18T22:36:09;100896.19;;;6.16;79.54
84122;BME280;74217;51.106;17.084;2023-11-18T22:38:54;100888.41;;;6.10;79.77
84122;BME280;74217;51.106;17.084;2023-11-18T22:41:39;100897.09;;;6.12;79.50
84122;BME280;74217;51.106;17.084;2023-11-18T22:44:25;100895.34;;;6.08;79.66
84122;BME280;74217;51.106;17.084;2023-11-18T22:47:11;100886.72;;;6.00;79.64
84122;BME280;74217;51.106;17.084;2023-11-18T22:49:56;100885.84;;;5.99;80.17
84122;BME280;74217;51.106;17.084;2023-11-18T22:52:41;100889.31;;;6.03;79.51
84122;BME280;74217;51.106;17.084;2023-11-18T22:55:26;100875.47;;;5.96;80.17
84122;BME280;74217;51.106;17.084;2023-11-18T22:58:11;100858.16;;;5.92;80.30
84122;BME280;74217;51.106;17.084;2023-11-18T23:00:57;100876.28;;;6.09;79.84
84122;BME280;74217;51.106;17.084;2023-11-18T23:03:41;100869.34;;;6.11;79.69
84122;BME280;74217;51.106;17.084;2023-11-18T23:06:26;100847.75;;;5.98;80.13
84122;BME280;74217;51.106;17.084;2023-11-18T23:09:10;100837.38;;;5.92;80.88
84122;BME280;74217;51.106;17.084;2023-11-18T23:11:56;100834.75;;;5.97;80.06
84122;BME280;74217;51.106;17.084;2023-11-18T23:14:41;100832.16;;;5.98;80.40
84122;BME280;74217;51.106;17.084;2023-11-18T23:17:26;100823.47;;;6.01;80.19
84122;BME280;74217;51.106;17.084;2023-11-18T23:20:10;100824.38;;;5.94;80.06
84122;BME280;74217;51.106;17.084;2023-11-18T23:22:57;100807.06;;;5.90;80.43
84122;BME280;74217;51.106;17.084;2023-11-18T23:25:43;100815.69;;;5.98;80.24
84122;BME280;74217;51.106;17.084;2023-11-18T23:28:28;100807.06;;;5.90;80.45
84122;BME280;74217;51.106;17.084;2023-11-18T23:31:15;100804.47;;;5.90;79.62
84122;BME280;74217;51.106;17.084;2023-11-18T23:34:00;100807.94;;;5.75;80.31
84122;BME280;74217;51.106;17.084;2023-11-18T23:36:51;100809.69;;;5.84;80.31
84122;BME280;74217;51.106;17.084;2023-11-18T23:39:36;100807.13;;;5.54;81.74
84122;BME280;74217;51.106;17.084;2023-11-18T23:42:21;100808.88;;;5.55;81.98
84122;BME280;74217;51.106;17.084;2023-11-18T23:45:06;100797.59;;;5.65;81.31
84122;BME280;74217;51.106;17.084;2023-11-18T23:47:51;100799.28;;;5.76;80.54
84122;BME280;74217;51.106;17.084;2023-11-18T23:50:38;100805.34;;;5.83;79.87
84122;BME280;74217;51.106;17.084;2023-11-18T23:53:23;100797.56;;;5.83;79.73
84122;BME280;74217;51.106;17.084;2023-11-18T23:56:08;100799.31;;;5.81;79.05
84122;BME280;74217;51.106;17.084;2023-11-18T23:58:52;100801.91;;;5.75;79.45
